Latest Weather Observations for Pallamana

IDS60901

Issued at 11:55 am CST Thursday 24 April 2014 (issued every 10 minutes, with the page automatically refreshed every 10 minutes)

About weather observations | Map of Adelaide area stations | Latest observations for Adelaide area | Other Formats
Station Details ID: 024584 Name: PALLAMANA AERODROME Lat: -35.06 Lon: 139.23 Height: 45.0 m
Data from the previous 72 hours. | See also: Recent months at Pallamana
Date/Time
CST
Tmp

°C
App
Tmp
°C
Dew
Point
°C
Rel
Hum
%
Delta-T

°C
Wind Press
QNH
hPa
Press
MSL
hPa
Rain
since
9 am
mm
Dir
 
Spd
km/h
Gust
km/h
Spd
kts
Gust
kts
24/11:30am 17.7 14.2 10.8 64 3.7 S 20 30 11 16 1019.1 - 1.2
24/11:00am 16.7 12.5 12.3 75 2.4 S 26 37 14 20 1019.2 - 1.2
24/10:30am 16.5 13.5 11.9 74 2.5 S 19 26 10 14 1019.1 - 1.2
24/10:00am 15.9 13.7 13.4 85 1.4 S 17 22 9 12 1019.1 - 1.2
24/09:30am 15.0 12.6 13.9 93 0.6 SSW 19 28 10 15 1019.1 - 1.2
24/09:00am 15.5 15.1 14.1 91 0.8 S 9 17 5 9 1018.8 1018.8 0.4
24/08:30am 15.7 14.4 13.7 88 1.1 S 13 17 7 9 1018.6 - 0.0
24/08:00am 15.2 12.4 12.5 84 1.5 SW 19 24 10 13 1018.1 - 0.0
24/07:30am 14.7 13.5 12.7 88 1.1 WSW 11 13 6 7 1017.5 - 0.0
24/07:00am 14.8 12.8 12.6 87 1.2 SW 15 20 8 11 1016.9 - 0.0
24/06:30am 14.3 12.8 11.9 85 1.3 W 11 13 6 7 1016.4 - 0.0
24/06:00am 14.3 13.1 11.7 84 1.4 WNW 9 13 5 7 1016.1 1016.1 0.0
24/05:30am 13.0 10.8 10.7 86 1.2 WNW 13 17 7 9 1015.7 - 0.0
24/05:00am 11.1 9.7 9.7 91 0.7 N 7 9 4 5 1015.5 - 0.0
24/04:30am 8.5 7.1 7.2 91 0.6 NNW 4 7 2 4 1015.3 - 0.0
24/04:00am 9.5 7.7 8.0 90 0.7 N 7 11 4 6 1015.1 - 0.0
24/03:30am 10.9 9.0 8.9 87 1.0 NW 9 11 5 6 1015.1 - 0.0
24/03:00am 12.9 12.1 9.6 80 1.7 SSW 4 7 2 4 1014.9 1014.9 0.0
24/02:30am 13.7 12.5 9.6 76 2.1 S 6 9 3 5 1015.2 - 0.0
24/02:00am 13.1 11.2 8.9 75 2.1 NW 9 13 5 7 1015.1 - 0.0
24/01:30am 12.6 10.1 8.4 75 2.1 NW 11 13 6 7 1015.3 - 0.0
24/01:00am 11.6 8.9 7.5 76 2.0 NNW 11 13 6 7 1015.2 - 0.0
24/12:30am 12.0 9.2 6.8 70 2.5 NNW 11 11 6 6 1015.2 - 0.0
24/12:00am 13.0 10.3 7.2 68 2.8 NW 11 13 6 7 1015.3 1015.3 0.0
 
Date/Time
CST
Tmp

°C
App
Tmp
°C
Dew
Point
°C
Rel
Hum
%
Delta-T

°C
Wind Press
QNH
hPa
Press
MSL
hPa
Rain
since
9 am
mm
Dir
 
Spd
km/h
Gust
km/h
Spd
kts
Gust
kts
23/11:30pm 13.3 10.2 7.1 66 3.0 NW 13 17 7 9 1015.3 - 0.0
23/11:00pm 13.7 10.8 6.7 62 3.4 WNW 11 17 6 9 1015.4 - 0.0
23/10:30pm 10.7 8.8 5.0 68 2.6 WNW 4 6 2 3 1015.4 - 0.0
23/10:00pm 14.7 12.0 5.4 53 4.4 WNW 9 11 5 6 1015.4 - 0.0
23/09:30pm 15.2 11.1 4.2 48 5.1 W 15 19 8 10 1015.3 - 0.0
23/09:00pm 11.8 8.7 3.7 57 3.6 N 9 11 5 6 1015.3 1015.3 0.0
23/08:30pm 12.7 9.5 3.3 52 4.2 NNW 9 13 5 7 1015.2 - 0.0
23/08:00pm 14.5 10.1 2.6 44 5.3 WNW 15 20 8 11 1015.2 - 0.0
23/07:30pm 14.6 9.9 3.0 45 5.2 WNW 17 20 9 11 1015.3 - 0.0
23/07:00pm 15.1 11.2 3.2 45 5.4 WNW 13 17 7 9 1015.2 - 0.0
23/06:30pm 15.9 12.0 3.5 43 5.7 W 13 17 7 9 1014.9 - 0.0
23/06:00pm 16.7 13.0 2.6 38 6.4 WNW 11 15 6 8 1014.6 1014.5 0.0
23/05:30pm 19.1 15.0 2.4 33 7.7 WNW 13 15 7 8 1014.4 - 0.0
23/05:00pm 19.9 16.2 2.5 31 8.1 WNW 11 15 6 8 1014.2 - 0.0
23/04:30pm 20.7 17.0 2.2 29 8.6 NW 11 15 6 8 1013.9 - 0.0
23/04:00pm 21.2 17.0 1.7 27 9.0 NW 13 17 7 9 1014.2 - 0.0
23/03:30pm 22.4 18.6 1.9 26 9.6 NW 11 15 6 8 1014.2 - 0.0
23/03:00pm 22.1 18.7 1.7 26 9.5 NNW 9 15 5 8 1014.4 1014.3 0.0
23/02:30pm 21.9 18.7 3.0 29 9.0 WNW 9 15 5 8 1014.5 - 0.0
23/02:00pm 21.6 18.3 4.4 32 8.4 NNE 11 20 6 11 1014.8 - 0.0
23/01:30pm 21.4 18.2 5.0 34 8.1 NNW 11 19 6 10 1015.2 - 0.0
23/01:00pm 21.2 18.7 6.4 38 7.5 NNE 9 15 5 8 1015.8 - 0.0
23/12:30pm 19.8 18.0 7.0 43 6.5 NNW 6 11 3 6 1016.5 - 0.0
23/12:00pm 19.7 17.8 7.6 45 6.2 WNW 7 13 4 7 1016.9 1016.9 0.0
23/11:30am 18.7 16.5 7.7 48 5.6 NNW 9 13 5 7 1017.5 - 0.0
23/11:00am 18.1 15.6 8.4 53 5.0 N 11 17 6 9 1018.0 - 0.0
23/10:30am 17.0 13.9 8.9 59 4.2 N 15 19 8 10 1018.4 - 0.0
23/10:00am 16.6 13.9 8.8 60 4.0 N 13 19 7 10 1018.6 - 0.0
23/09:30am 15.6 13.0 9.4 66 3.2 N 13 19 7 10 1018.8 - 0.0
23/09:00am 13.0 13.1 10.1 82 1.5 CALM 0 7 0 4 1019.0 1019.0 0.0
23/08:30am 11.1 11.0 9.5 90 0.8 CALM 0 0 0 0 1019.0 - 0.0
23/08:00am 9.4 7.8 8.2 92 0.6 N 6 7 3 4 1018.6 - 0.0
23/07:30am 7.2 5.3 6.5 95 0.3 N 6 7 3 4 1018.6 - 0.0
23/07:00am 5.9 3.1 5.2 95 0.3 NNW 9 11 5 6 1018.2 - 0.0
23/06:30am 5.7 2.9 5.0 95 0.3 N 9 11 5 6 1018.0 - 0.0
23/06:00am 5.4 2.9 4.7 95 0.3 N 7 9 4 5 1017.9 1017.9 0.0
23/05:30am 5.5 3.0 4.8 95 0.3 N 7 9 4 5 1018.1 - 0.0
23/05:00am 5.1 2.7 4.2 94 0.4 NNW 6 7 3 4 1018.1 - 0.0
23/04:30am 5.2 3.9 4.3 94 0.4 CALM 0 0 0 0 1018.0 - 0.0
23/04:00am 7.3 4.7 6.2 93 0.5 NNW 9 11 5 6 1018.0 - 0.0
23/03:30am 6.8 4.5 5.9 94 0.4 N 7 11 4 6 1018.0 - 0.0
23/03:00am 7.0 6.1 6.1 94 0.4 CALM 0 0 0 0 1018.0 1018.0 0.0
23/02:30am 7.8 6.2 6.3 90 0.7 SW 4 7 2 4 1018.3 - 0.0
23/02:00am 8.8 7.7 7.1 89 0.8 N 2 6 1 3 1018.4 - 0.0
23/01:30am 10.1 7.0 7.4 83 1.3 W 13 17 7 9 1018.5 - 0.0
23/01:00am 10.4 6.7 7.9 84 1.2 W 17 19 9 10 1018.7 - 0.0
23/12:30am 11.2 8.3 8.3 82 1.4 W 13 15 7 8 1018.9 - 0.0
23/12:00am 10.7 7.8 8.0 83 1.3 W 13 17 7 9 1019.1 1019.1 0.0
 
Date/Time
CST
Tmp

°C
App
Tmp
°C
Dew
Point
°C
Rel
Hum
%
Delta-T

°C
Wind Press
QNH
hPa
Press
MSL
hPa
Rain
since
9 am
mm
Dir
 
Spd
km/h
Gust
km/h
Spd
kts
Gust
kts
22/11:30pm 12.0 9.2 8.6 80 1.7 W 13 15 7 8 1019.3 - 0.0
22/11:00pm 12.1 9.3 8.7 80 1.7 WSW 13 15 7 8 1019.2 - 0.0
22/10:30pm 11.9 9.5 8.7 81 1.6 WSW 11 13 6 7 1019.3 - 0.0
22/10:00pm 11.5 8.7 8.5 82 1.5 WSW 13 15 7 8 1019.4 - 0.0
22/09:30pm 11.7 8.8 8.2 79 1.7 SW 13 15 7 8 1019.6 - 0.0
22/09:00pm 11.9 8.6 8.2 78 1.8 SW 15 17 8 9 1019.5 1019.5 0.0
22/08:30pm 12.3 9.0 8.2 76 2.0 SW 15 17 8 9 1019.4 - 0.0
22/08:00pm 12.0 9.1 8.1 77 1.9 SW 13 15 7 8 1019.5 - 0.0
22/07:30pm 11.7 8.8 8.0 78 1.8 SW 13 15 7 8 1019.3 - 0.0
22/07:00pm 12.3 8.7 8.2 76 2.0 SW 17 19 9 10 1019.1 - 0.0
22/06:30pm 13.7 10.0 8.1 69 2.8 SSW 17 20 9 11 1018.9 - 0.0
22/06:00pm 15.0 11.0 8.2 64 3.4 SSW 19 24 10 13 1018.5 1018.5 0.0
22/05:30pm 15.7 11.6 7.9 59 3.9 S 19 24 10 13 1018.1 - 0.0
22/05:00pm 16.4 11.4 8.1 58 4.2 S 24 32 13 17 1017.8 - 0.0
22/04:30pm 17.1 12.1 8.0 55 4.6 S 24 33 13 18 1017.5 - 0.0
22/04:00pm 18.1 12.7 7.9 51 5.2 S 26 32 14 17 1017.3 - 0.0
22/03:30pm 18.8 13.9 8.6 51 5.3 S 24 32 13 17 1017.2 - 0.0
22/03:00pm 18.3 13.1 8.9 54 4.9 S 26 33 14 18 1017.0 1017.0 0.0
22/02:30pm 19.0 13.4 8.9 52 5.3 S 28 39 15 21 1016.9 - 0.0
22/02:00pm 19.3 14.8 9.9 54 5.0 S 24 33 13 18 1016.8 - 0.0
22/01:30pm 19.4 15.4 8.4 49 5.7 SW 19 28 10 15 1016.7 - 0.0
22/01:00pm 19.3 14.8 10.2 55 4.9 S 24 35 13 19 1016.9 - 0.0
22/12:30pm 19.7 15.9 9.1 50 5.6 S 19 28 10 15 1017.0 - 0.0
22/12:00pm 20.4 15.6 9.0 48 6.0 SSW 24 32 13 17 1017.2 1017.2 0.0
22/11:30am 19.8 15.3 8.7 48 5.8 SSW 22 33 12 18 1017.5 - 0.0
22/11:00am 18.9 14.2 9.4 54 5.0 SSW 24 32 13 17 1017.4 - 0.0
22/10:30am 18.7 14.2 9.9 56 4.7 SSW 24 35 13 19 1017.5 - 0.0
22/10:00am 18.0 13.3 10.8 63 3.9 SSW 26 33 14 18 1017.3 - 0.0
22/09:30am 17.8 13.2 11.2 65 3.6 SSW 26 35 14 19 1017.2 - 0.0
22/09:00am 17.4 12.8 12.3 72 2.8 SSW 28 37 15 20 1017.1 1017.1 0.0
22/08:30am 16.5 13.4 13.3 81 1.8 SW 22 30 12 16 1016.9 - 0.0
22/08:00am 15.8 11.6 13.5 86 1.3 SW 28 35 15 19 1016.5 - 0.0
22/07:30am 15.9 13.9 13.8 87 1.2 SW 17 22 9 12 1016.0 - 0.0
22/07:00am 15.6 12.6 13.6 88 1.1 SW 22 26 12 14 1015.5 - 0.0
22/06:30am 15.4 12.5 14.0 91 0.8 SW 22 26 12 14 1014.9 - 0.0
22/06:00am 15.6 12.8 14.4 93 0.7 SW 22 30 12 16 1014.9 1014.9 0.0
22/05:30am 15.9 12.9 14.9 94 0.6 SW 24 32 13 17 1014.5 - 0.0
22/05:00am 15.5 14.1 14.6 94 0.5 SSW 15 20 8 11 1014.0 - 0.0
22/04:30am 16.2 14.7 15.2 94 0.6 WSW 17 20 9 11 1013.9 - 0.0
22/04:00am 16.1 16.1 15.2 94 0.5 SSW 9 15 5 8 1013.2 - 0.0
22/03:30am 16.3 15.1 15.1 93 0.7 SW 15 20 8 11 1012.9 - 0.0
22/03:00am 16.9 16.2 15.5 91 0.8 SSW 13 19 7 10 1012.8 1012.7 0.0
22/02:30am 17.5 15.3 14.9 85 1.5 SSW 20 28 11 15 1013.0 - 0.0
22/02:11am 17.5 12.8 12.1 70 3.0 SW 28 35 15 19 1013.1 - 0.0
22/02:00am 16.3 15.3 12.3 77 2.2 NW 9 13 5 7 1012.2 - 0.0
22/01:30am 16.5 15.4 11.9 74 2.5 NNW 9 17 5 9 1012.0 - 0.0
22/01:00am 17.3 16.8 12.2 72 2.8 ENE 6 13 3 7 1012.6 - 0.0
22/12:30am 18.1 17.4 11.5 65 3.6 S 6 9 3 5 1012.9 - 0.0
22/12:00am 18.9 18.2 10.1 56 4.7 WSW 4 9 2 5 1012.6 1012.5 0.0
 
Date/Time
CST
Tmp

°C
App
Tmp
°C
Dew
Point
°C
Rel
Hum
%
Delta-T

°C
Wind Press
QNH
hPa
Press
MSL
hPa
Rain
since
9 am
mm
Dir
 
Spd
km/h
Gust
km/h
Spd
kts
Gust
kts
21/11:30pm 18.4 15.3 8.8 53 5.0 SSE 15 17 8 9 1012.1 - 0.0
21/11:00pm 18.2 17.2 9.0 55 4.8 E 4 13 2 7 1012.1 - 0.0
21/10:30pm 19.4 17.4 8.5 49 5.7 W 9 11 5 6 1011.8 - 0.0
21/10:00pm 20.5 18.1 8.5 46 6.3 NNW 11 17 6 9 1011.5 - 0.0
21/09:30pm 20.7 18.3 8.5 45 6.4 NNW 11 17 6 9 1011.6 - 0.0
21/09:00pm 20.1 17.4 8.9 48 5.9 N 13 19 7 10 1011.7 1011.7 0.0
21/08:30pm 20.2 17.2 9.1 49 5.9 N 15 20 8 11 1011.5 - 0.0
21/08:00pm 21.2 17.4 9.2 46 6.4 NNE 19 20 10 11 1011.5 - 0.0
21/07:30pm 22.6 18.6 9.0 42 7.3 N 20 26 11 14 1011.5 - 0.0
21/07:00pm 22.5 18.7 9.1 42 7.2 NNE 19 22 10 12 1011.5 - 0.0
21/06:30pm 22.6 19.1 8.7 41 7.4 NNE 17 19 9 10 1011.4 - 0.0
21/06:00pm 23.8 20.5 9.5 40 7.8 N 17 22 9 12 1011.2 1011.2 0.0
21/05:30pm 26.0 21.8 9.7 35 9.0 N 22 30 12 16 1011.0 - 0.0
21/05:00pm 27.5 22.0 9.2 31 10.1 NNW 28 37 15 20 1010.9 - 0.0
21/04:30pm 28.6 23.8 8.9 29 10.9 NNW 24 33 13 18 1010.9 - 0.0
21/04:00pm 28.7 23.0 8.5 28 11.1 NNW 28 46 15 25 1010.9 - 0.0
21/03:58pm 28.7 23.0 8.2 27 11.2 NNW 28 46 15 25 1010.9 - 0.0
21/03:30pm 28.3 23.0 8.6 29 10.8 NNW 26 37 14 20 1011.0 - 0.0
21/03:00pm 28.6 23.2 8.0 27 11.2 NNW 26 39 14 21 1010.9 1010.9 0.0
21/02:30pm 28.6 22.8 8.0 27 11.2 NNW 28 39 15 21 1010.9 - 0.0
21/02:01pm 28.6 21.6 6.9 25 11.6 NNW 33 54 18 29 1011.1 - 0.0
21/02:00pm 28.6 21.8 6.9 25 11.6 NNW 32 48 17 26 1011.1 - 0.0
21/01:30pm 28.2 23.0 8.8 29 10.7 NNW 26 43 14 23 1011.4 - 0.0
21/01:01pm 27.7 21.2 8.2 29 10.6 NNW 32 50 17 27 1011.9 - 0.0
21/01:00pm 27.7 20.9 7.9 28 10.7 NNW 33 50 18 27 1011.9 - 0.0
21/12:31pm 27.9 21.0 7.4 27 11.0 NNW 33 52 18 28 1012.5 - 0.0
21/12:30pm 27.9 20.6 7.1 26 11.1 NNW 35 52 19 28 1012.5 - 0.0
21/12:24pm 28.0 21.1 7.3 27 11.1 NNW 33 52 18 28 1012.5 - 0.0
21/12:00pm 24.5 20.3 9.7 39 8.1 N 22 32 12 17 1012.9 1012.8 0.0

Latest Capital City Observations: Canberra | Sydney | Melbourne | Brisbane | Adelaide | Perth | Hobart | Darwin

Other Formats:

Comma delimited format used in spreadsheet applications
http://www.bom.gov.au/fwo/IDS60901/IDS60901.95818.axf

JavaScript Object Notation format (JSON) in row-major order
http://www.bom.gov.au/fwo/IDS60901/IDS60901.95818.json